Time;durP1;ratioP1;P1;durP2;ratioP2;P2;SDS_P1;SDS_P2;PMS_P1;PMS_P2;Temp;Humidity;BMP_temperature;BMP_pressure;BME280_temperature;BME280_humidity;BME280_pressure;Samples;Min_cycle;Max_cycle;Signal;HPM_P1;HPM_P2
2022/01/10 00:01:48;;;;;;;11.95;4.15;;;;;;;2.04;100.00;97627.94;10414262;28;20119;-88
2022/01/10 00:06:52;;;;;;;11.70;4.10;;;;;;;2.03;100.00;97639.53;10393180;28;20049;-88
2022/01/10 00:11:57;;;;;;;9.57;3.83;;;;;;;2.05;100.00;97657.03;10396202;28;20478;-89
2022/01/10 00:17:04;;;;;;;13.27;4.10;;;;;;;2.05;100.00;97661.50;10411663;28;20088;-88
2022/01/10 00:22:33;;;;;;;13.52;4.50;;;;;;;2.08;100.00;97672.72;10430448;28;20037;-89
2022/01/10 00:27:49;;;;;;;10.43;4.20;;;;;;;2.04;100.00;97676.59;10421470;28;20046;-88
2022/01/10 00:32:55;;;;;;;12.65;4.60;;;;;;;2.07;100.00;97684.31;10404916;28;20045;-88
2022/01/10 00:37:58;;;;;;;11.50;4.50;;;;;;;2.06;100.00;97673.81;10398654;28;20549;-91
2022/01/10 00:43:01;;;;;;;10.05;3.83;;;;;;;2.09;100.00;97693.00;10428049;28;20080;-88
2022/01/10 00:48:21;;;;;;;12.00;4.10;;;;;;;2.09;100.00;97684.19;10449523;28;20045;-88
2022/01/10 00:53:25;;;;;;;12.25;4.50;;;;;;;2.09;100.00;97682.38;10454147;28;20056;-88
2022/01/10 00:58:33;;;;;;;12.15;4.95;;;;;;;1.99;100.00;97689.41;10450490;28;20160;-88
2022/01/10 01:03:50;;;;;;;9.63;4.23;;;;;;;1.96;100.00;97700.28;10450069;28;20053;-87
2022/01/10 01:08:58;;;;;;;11.77;4.05;;;;;;;1.95;100.00;97711.88;10460119;28;20051;-87
2022/01/10 01:14:08;;;;;;;10.70;4.25;;;;;;;1.98;100.00;97715.16;10455703;28;20462;-88
2022/01/10 01:24:46;;;;;;;9.55;4.70;;;;;;;1.89;100.00;97721.19;10472432;28;20143;-87
2022/01/10 01:29:53;;;;;;;7.75;4.30;;;;;;;1.87;100.00;97727.59;10449857;28;20040;-88
2022/01/10 01:35:04;;;;;;;15.32;5.15;;;;;;;1.85;100.00;97725.91;10438250;23;20053;-60
2022/01/10 01:40:10;;;;;;;13.70;5.00;;;;;;;1.80;100.00;97729.91;10449515;28;20053;-61
2022/01/10 01:45:16;;;;;;;15.32;5.40;;;;;;;1.75;100.00;97735.56;10441487;28;20547;-63
2022/01/10 01:50:21;;;;;;;10.80;4.50;;;;;;;1.69;100.00;97736.09;10457406;28;20055;-63
2022/01/10 01:55:50;;;;;;;8.85;4.00;;;;;;;1.70;100.00;97743.09;10447041;28;20103;-62
2022/01/10 02:00:55;;;;;;;9.23;3.72;;;;;;;1.62;100.00;97751.66;10441553;28;20049;-63
2022/01/10 02:06:00;;;;;;;11.15;3.65;;;;;;;1.67;100.00;97760.09;10419678;28;20332;-63
2022/01/10 02:11:05;;;;;;;8.63;3.63;;;;;;;1.66;100.00;97766.34;10427085;28;20048;-63
2022/01/10 02:16:15;;;;;;;12.65;3.95;;;;;;;1.69;100.00;97762.63;10448219;28;20055;-60
2022/01/10 02:21:20;;;;;;;8.25;3.88;;;;;;;1.72;100.00;97765.03;10460193;28;20417;-63
2022/01/10 02:26:25;;;;;;;10.52;4.20;;;;;;;1.80;100.00;97781.22;10456793;28;20049;-63
2022/01/10 02:31:28;;;;;;;11.77;4.40;;;;;;;1.82;100.00;97784.56;10458270;28;20102;-64
2022/01/10 02:36:33;;;;;;;10.32;3.70;;;;;;;1.92;100.00;97799.81;10437652;28;20115;-63
2022/01/10 02:41:38;;;;;;;8.32;3.90;;;;;;;1.89;100.00;97805.34;10454309;28;20109;-64
2022/01/10 02:46:42;;;;;;;10.00;4.00;;;;;;;1.90;100.00;97812.34;10436782;28;20135;-57
2022/01/10 02:52:06;;;;;;;12.13;4.28;;;;;;;1.93;100.00;97818.25;10453351;28;20037;-58
2022/01/10 02:57:10;;;;;;;7.93;3.85;;;;;;;1.97;100.00;97834.78;10447697;28;20087;-59
2022/01/10 03:02:19;;;;;;;9.75;4.30;;;;;;;1.98;100.00;97839.16;10448692;28;20490;-63
2022/01/10 03:07:27;;;;;;;9.07;4.35;;;;;;;2.00;100.00;97850.50;10448790;28;20144;-61
2022/01/10 03:12:31;;;;;;;12.43;4.40;;;;;;;2.01;100.00;97857.50;10434756;28;20045;-63
2022/01/10 03:17:35;;;;;;;11.90;4.35;;;;;;;2.00;100.00;97877.06;10474635;22;20049;-58
2022/01/10 03:22:40;;;;;;;10.07;4.32;;;;;;;1.97;100.00;97890.59;10406057;28;20053;-58
2022/01/10 03:27:43;;;;;;;11.57;4.95;;;;;;;1.89;100.00;97891.19;10417864;28;20071;-56
2022/01/10 03:32:48;;;;;;;11.18;5.47;;;;;;;1.83;100.00;97904.94;10415892;28;20045;-55
2022/01/10 03:38:04;;;;;;;12.57;5.32;;;;;;;1.85;100.00;97922.44;10411231;28;20050;-57
2022/01/10 03:43:10;;;;;;;12.32;5.18;;;;;;;1.85;100.00;97932.25;10413596;28;20091;-54
2022/01/10 03:48:14;;;;;;;11.55;5.53;;;;;;;1.81;100.00;97947.56;10403667;28;20049;-55
2022/01/10 03:53:18;;;;;;;15.63;5.50;;;;;;;1.76;100.00;97963.00;10429026;28;20507;-53
2022/01/10 03:58:22;;;;;;;11.40;5.80;;;;;;;1.73;100.00;97973.84;10394034;28;20544;-58
2022/01/10 04:03:25;;;;;;;11.32;5.82;;;;;;;1.68;100.00;97981.34;10408221;28;20136;-53
2022/01/10 04:08:38;;;;;;;13.25;5.80;;;;;;;1.68;100.00;97986.66;10398082;28;20132;-53
2022/01/10 04:13:42;;;;;;;9.90;5.22;;;;;;;1.66;100.00;97992.06;10400487;28;20049;-54
2022/01/10 04:18:46;;;;;;;16.77;6.00;;;;;;;1.62;100.00;98000.38;10403420;28;20067;-59
2022/01/10 04:23:50;;;;;;;9.48;5.55;;;;;;;1.57;100.00;98005.19;10408127;28;20050;-55
2022/01/10 04:29:19;;;;;;;19.55;5.85;;;;;;;1.53;100.00;98008.06;10390553;28;20061;-57
2022/01/10 04:34:23;;;;;;;13.07;6.18;;;;;;;1.53;100.00;98013.38;10386505;28;20054;-59
2022/01/10 04:39:27;;;;;;;12.65;5.68;;;;;;;1.54;100.00;98038.09;10406100;28;20336;-56
2022/01/10 04:44:31;;;;;;;12.75;6.40;;;;;;;1.51;100.00;98041.84;10395122;28;20124;-54
2022/01/10 04:49:57;;;;;;;17.35;6.90;;;;;;;1.48;100.00;98047.38;10398532;28;20053;-55
2022/01/10 04:55:00;;;;;;;13.50;6.90;;;;;;;1.46;100.00;98049.31;10398457;28;20506;-53
2022/01/10 05:00:05;;;;;;;14.20;6.88;;;;;;;1.46;100.00;98067.91;10415055;28;20486;-58
2022/01/10 05:05:10;;;;;;;15.48;7.35;;;;;;;1.46;100.00;98062.59;10398801;28;20051;-53
2022/01/10 05:10:15;;;;;;;13.38;7.25;;;;;;;1.46;100.00;98078.53;10415345;28;20136;-55
2022/01/10 05:15:19;;;;;;;14.48;7.25;;;;;;;1.45;100.00;98095.41;10404228;28;20063;-56
2022/01/10 05:20:23;;;;;;;14.88;6.40;;;;;;;1.42;100.00;98098.28;10435832;28;20049;-57
2022/01/10 05:25:28;;;;;;;13.25;7.10;;;;;;;1.39;100.00;98101.16;10455052;28;20071;-56
2022/01/10 05:30:32;;;;;;;13.85;6.78;;;;;;;1.35;100.00;98111.16;10450736;28;20552;-56
2022/01/10 05:35:35;;;;;;;16.95;7.95;;;;;;;1.28;100.00;98119.66;10453994;28;20055;-55
2022/01/10 05:40:41;;;;;;;18.83;8.05;;;;;;;1.21;100.00;98125.41;10474036;28;20144;-58
2022/01/10 05:45:46;;;;;;;18.60;8.52;;;;;;;1.20;100.00;98141.44;10447303;28;20109;-55
2022/01/10 05:50:51;;;;;;;16.05;9.35;;;;;;;1.23;100.00;98159.78;10451404;28;20082;-57
2022/01/10 05:55:57;;;;;;;24.60;10.45;;;;;;;1.23;100.00;98163.28;10452476;28;20404;-54
2022/01/10 06:01:01;;;;;;;25.10;11.27;;;;;;;1.18;100.00;98170.72;10455222;28;20467;-57
2022/01/10 06:06:05;;;;;;;26.95;11.38;;;;;;;1.15;100.00;98183.38;10473427;28;20052;-57
2022/01/10 06:11:09;;;;;;;26.60;12.18;;;;;;;1.12;100.00;98184.41;10465432;28;20774;-53
2022/01/10 06:16:17;;;;;;;20.35;11.88;;;;;;;1.06;100.00;98190.16;10455087;28;20048;-59
2022/01/10 06:21:21;;;;;;;22.23;13.30;;;;;;;1.02;100.00;98199.28;10439273;28;20551;-54
2022/01/10 06:26:26;;;;;;;23.25;13.77;;;;;;;0.99;100.00;98204.81;10442433;28;20416;-55
2022/01/10 06:31:31;;;;;;;24.23;13.68;;;;;;;1.00;100.00;98219.78;10454608;28;20068;-57
2022/01/10 06:36:45;;;;;;;22.27;13.65;;;;;;;1.02;100.00;98231.13;10441466;28;20107;-57
2022/01/10 06:41:51;;;;;;;27.15;14.13;;;;;;;1.03;100.00;98240.78;10448533;28;20052;-59
2022/01/10 06:46:56;;;;;;;26.75;14.23;;;;;;;1.05;100.00;98266.28;10445443;28;20044;-56
2022/01/10 06:51:59;;;;;;;25.23;14.35;;;;;;;1.07;100.00;98274.09;10456866;28;20051;-54
2022/01/10 06:57:04;;;;;;;22.45;13.95;;;;;;;1.11;100.00;98282.69;10448123;28;20519;-55
2022/01/10 07:02:10;;;;;;;23.35;13.50;;;;;;;1.13;100.00;98286.94;10439659;28;20076;-59
2022/01/10 07:07:13;;;;;;;24.15;13.38;;;;;;;1.15;100.00;98305.44;10446536;28;20049;-55
2022/01/10 07:12:20;;;;;;;23.42;13.02;;;;;;;1.14;100.00;98312.53;10448966;28;20052;-54
2022/01/10 07:17:39;;;;;;;29.95;15.27;;;;;;;1.14;100.00;98324.97;10451225;28;20055;-58
2022/01/10 07:22:44;;;;;;;33.88;18.60;;;;;;;1.15;100.00;98338.09;10453417;28;20665;-57
2022/01/10 07:27:49;;;;;;;31.55;17.25;;;;;;;1.16;100.00;98345.13;10454120;28;20044;-57
2022/01/10 07:32:52;;;;;;;34.70;17.80;;;;;;;1.18;100.00;98361.78;10473215;28;20049;-58
2022/01/10 07:37:56;;;;;;;27.90;17.38;;;;;;;1.20;100.00;98366.97;10470271;28;20127;-60
2022/01/10 07:43:00;;;;;;;28.33;17.60;;;;;;;1.19;100.00;98379.41;10469623;28;20036;-59
2022/01/10 07:48:17;;;;;;;32.72;17.15;;;;;;;1.19;100.00;98387.38;10451678;28;20489;-58
2022/01/10 07:53:20;;;;;;;31.83;15.68;;;;;;;1.18;100.00;98385.69;10476100;28;20094;-58
2022/01/10 07:58:26;;;;;;;29.75;14.57;;;;;;;1.18;100.00;98396.28;10468029;28;20471;-55
2022/01/10 08:03:29;;;;;;;26.33;13.57;;;;;;;1.19;100.00;98408.59;10469158;28;20068;-54
2022/01/10 08:08:51;;;;;;;21.92;13.40;;;;;;;1.24;100.00;98416.25;10449485;28;20420;-55
2022/01/10 08:13:56;;;;;;;27.35;14.20;;;;;;;1.27;100.00;98431.13;10478272;28;20041;-60
2022/01/10 08:18:59;;;;;;;22.02;13.98;;;;;;;1.29;100.00;98442.50;10429257;28;20083;-56
2022/01/10 08:24:02;;;;;;;26.25;13.73;;;;;;;1.34;100.00;98446.53;10459907;28;20069;-57
2022/01/10 08:29:07;;;;;;;26.98;13.65;;;;;;;1.38;100.00;98452.47;10454339;28;20072;-60
2022/01/10 08:34:10;;;;;;;22.58;12.70;;;;;;;1.44;100.00;98465.38;10460084;28;20075;-60
2022/01/10 08:39:13;;;;;;;24.10;12.23;;;;;;;1.50;100.00;98458.78;10452903;28;20053;-61
2022/01/10 08:44:18;;;;;;;23.08;12.40;;;;;;;1.57;100.00;98473.34;10452029;28;20044;-60
2022/01/10 08:49:22;;;;;;;23.10;12.35;;;;;;;1.61;100.00;98488.13;10460764;28;20555;-57
2022/01/10 08:54:26;;;;;;;25.42;11.95;;;;;;;1.67;100.00;98486.88;10462671;28;20045;-59
2022/01/10 08:59:31;;;;;;;20.30;11.80;;;;;;;1.74;100.00;98500.59;10460232;28;20045;-60
2022/01/10 09:04:34;;;;;;;24.13;12.80;;;;;;;1.79;100.00;98509.06;10460828;28;20945;-61
2022/01/10 09:09:38;;;;;;;24.63;11.68;;;;;;;1.87;100.00;98513.88;10466471;28;20072;-61
2022/01/10 09:14:43;;;;;;;22.80;11.55;;;;;;;1.96;100.00;98523.88;10450666;28;20055;-60
2022/01/10 09:19:47;;;;;;;21.95;12.02;;;;;;;2.03;100.00;98527.84;10456292;23;20100;-61
2022/01/10 09:24:50;;;;;;;27.63;12.00;;;;;;;2.08;100.00;98538.97;10432763;28;20045;-60
2022/01/10 09:29:54;;;;;;;24.38;11.82;;;;;;;2.16;100.00;98538.47;10418081;28;20211;-61
2022/01/10 09:34:58;;;;;;;23.13;12.32;;;;;;;2.26;100.00;98552.00;10418087;28;20049;-60
2022/01/10 09:40:01;;;;;;;20.73;10.20;;;;;;;2.61;100.00;98562.81;10426465;28;20045;-61
2022/01/10 09:45:07;;;;;;;19.33;10.18;;;;;;;2.85;100.00;98564.72;10415394;28;20120;-61
2022/01/10 09:50:15;;;;;;;19.70;9.45;;;;;;;3.05;100.00;98565.97;10419313;28;20132;-63
2022/01/10 09:55:18;;;;;;;20.52;10.10;;;;;;;2.94;100.00;98563.22;10414252;28;20409;-63
2022/01/10 10:00:24;;;;;;;19.48;10.75;;;;;;;2.97;100.00;98583.44;10412963;28;20042;-62
2022/01/10 10:05:29;;;;;;;25.15;11.55;;;;;;;2.93;100.00;98598.78;10412370;28;20132;-63
2022/01/10 10:10:33;;;;;;;22.85;11.73;;;;;;;2.93;100.00;98604.97;10417265;28;20068;-64
2022/01/10 10:15:39;;;;;;;26.08;12.02;;;;;;;2.99;100.00;98611.66;10421055;28;20037;-63
2022/01/10 10:20:46;;;;;;;26.13;12.38;;;;;;;3.00;100.00;98626.63;10416875;28;20412;-63
2022/01/10 10:25:55;;;;;;;25.13;12.32;;;;;;;3.03;100.00;98634.41;10412325;28;20041;-63
2022/01/10 10:31:00;;;;;;;24.38;12.88;;;;;;;3.07;100.00;98643.91;10411997;28;20140;-63
2022/01/10 10:36:08;;;;;;;28.17;13.13;;;;;;;3.09;100.00;98643.78;10412810;28;20045;-63
2022/01/10 10:41:12;;;;;;;26.90;13.85;;;;;;;3.13;100.00;98645.28;10418881;28;20076;-61
2022/01/10 10:46:17;;;;;;;22.73;12.85;;;;;;;3.16;100.00;98660.16;10420034;28;20103;-63
2022/01/10 10:51:21;;;;;;;26.08;10.30;;;;;;;3.16;100.00;98662.84;10416045;28;20055;-61
2022/01/10 10:56:24;;;;;;;25.17;10.10;;;;;;;3.19;100.00;98667.94;10417817;28;20045;-63
2022/01/10 11:01:29;;;;;;;18.55;10.38;;;;;;;3.27;100.00;98675.41;10409321;28;20109;-62
2022/01/10 11:06:34;;;;;;;23.35;11.43;;;;;;;3.29;100.00;98689.47;10416105;28;20049;-61
2022/01/10 11:11:39;;;;;;;27.83;10.90;;;;;;;3.33;100.00;98697.13;10416445;28;20385;-61
2022/01/10 11:16:46;;;;;;;24.25;10.35;;;;;;;3.46;100.00;98701.59;10408460;28;20043;-62
2022/01/10 11:21:55;;;;;;;23.85;9.75;;;;;;;3.48;100.00;98699.63;10409500;28;20418;-62
2022/01/10 11:26:58;;;;;;;20.52;9.00;;;;;;;3.54;100.00;98709.88;10411772;28;20120;-63
2022/01/10 11:32:02;;;;;;;18.35;8.25;;;;;;;3.57;100.00;98708.78;10411616;28;20503;-62
2022/01/10 11:37:05;;;;;;;21.08;8.63;;;;;;;3.70;100.00;98710.44;10413490;28;20140;-60
2022/01/10 11:42:21;;;;;;;16.55;7.30;;;;;;;3.74;100.00;98726.22;10415642;28;20133;-63
2022/01/10 11:47:26;;;;;;;17.02;7.60;;;;;;;3.80;100.00;98733.81;10413784;28;20084;-59
2022/01/10 11:52:30;;;;;;;16.77;7.25;;;;;;;3.78;100.00;98733.06;10405916;28;20065;-62
2022/01/10 11:57:33;;;;;;;16.33;6.78;;;;;;;3.73;100.00;98740.50;10410000;28;20067;-62
2022/01/10 12:02:38;;;;;;;17.65;6.80;;;;;;;3.75;100.00;98749.25;10384671;28;20136;-62
2022/01/10 12:07:42;;;;;;;14.05;5.90;;;;;;;3.72;100.00;98749.47;10360577;28;20091;-63
2022/01/10 12:13:03;;;;;;;15.38;4.57;;;;;;;3.70;100.00;98753.09;10379362;28;20052;-60
2022/01/10 12:18:09;;;;;;;20.92;5.20;;;;;;;3.70;100.00;98763.75;10362502;28;20056;-57
2022/01/10 12:23:13;;;;;;;15.77;5.38;;;;;;;3.70;100.00;98763.75;10362588;28;20046;-62
2022/01/10 12:28:18;;;;;;;18.02;5.40;;;;;;;3.75;100.00;98778.56;10380339;28;20459;-63
2022/01/10 12:33:23;;;;;;;15.32;5.72;;;;;;;3.66;100.00;98794.25;10397123;28;20060;-63
2022/01/10 12:38:26;;;;;;;18.35;6.68;;;;;;;3.64;100.00;98792.66;10372167;28;20057;-63
2022/01/10 12:43:29;;;;;;;24.90;7.32;;;;;;;3.67;100.00;98811.09;10374929;28;20532;-59
2022/01/10 12:48:35;;;;;;;20.63;6.90;;;;;;;3.75;100.00;98815.88;10370435;28;20042;-59
2022/01/10 12:53:38;;;;;;;20.30;7.95;;;;;;;3.77;100.00;98821.97;10377629;28;20121;-60
2022/01/10 12:58:41;;;;;;;18.15;7.43;;;;;;;3.82;100.00;98830.50;10374282;28;20465;-60
2022/01/10 13:03:52;;;;;;;18.05;7.35;;;;;;;3.84;100.00;98833.88;10373077;28;20125;-62
2022/01/10 13:08:56;;;;;;;17.77;6.90;;;;;;;3.91;100.00;98840.50;10377736;28;20118;-59
2022/01/10 13:14:08;;;;;;;16.50;7.13;;;;;;;3.85;100.00;98856.91;10378837;28;20121;-59
2022/01/10 13:19:15;;;;;;;18.30;6.70;;;;;;;3.81;100.00;98860.78;10362166;28;20144;-60
2022/01/10 13:24:21;;;;;;;18.33;6.40;;;;;;;3.78;100.00;98868.97;10383098;28;20054;-59
2022/01/10 13:29:36;;;;;;;16.00;6.47;;;;;;;3.80;100.00;98875.06;10384718;28;20490;-60
2022/01/10 13:34:41;;;;;;;16.20;6.20;;;;;;;3.83;100.00;98885.47;10363375;28;20053;-62
2022/01/10 13:39:44;;;;;;;13.48;4.93;;;;;;;3.78;100.00;98891.13;10389145;28;20092;-62
2022/01/10 13:44:54;;;;;;;18.17;5.85;;;;;;;3.82;100.00;98902.47;10398085;28;20137;-62
2022/01/10 13:50:16;;;;;;;18.80;7.57;;;;;;;3.78;100.00;98915.13;10395453;28;20092;-62
2022/01/10 13:55:20;;;;;;;16.83;8.50;;;;;;;3.78;100.00;98922.28;10395813;28;21175;-63
2022/01/10 14:00:24;;;;;;;20.00;8.48;;;;;;;3.81;100.00;98927.41;10402623;28;20543;-62
2022/01/10 14:05:31;;;;;;;18.17;7.93;;;;;;;3.87;100.00;98945.63;10402723;28;20068;-62
2022/01/10 14:10:34;;;;;;;19.23;7.80;;;;;;;3.91;100.00;98952.47;10395282;28;20111;-63
2022/01/10 14:15:37;;;;;;;16.85;7.82;;;;;;;3.92;100.00;98954.16;10391793;28;20156;-65
2022/01/10 14:20:42;;;;;;;22.42;8.13;;;;;;;3.93;100.00;98963.88;10387937;28;20053;-63
2022/01/10 14:25:47;;;;;;;22.30;7.75;;;;;;;3.91;100.00;98973.78;10392766;28;20345;-65
2022/01/10 14:30:51;;;;;;;22.52;7.72;;;;;;;3.88;100.00;98979.31;10390462;28;20144;-64
2022/01/10 14:35:58;;;;;;;17.00;7.50;;;;;;;3.87;100.00;98984.78;10392619;28;20044;-63
2022/01/10 14:41:02;;;;;;;18.25;7.60;;;;;;;3.87;100.00;98992.75;10388899;28;20067;-64
2022/01/10 14:46:06;;;;;;;20.17;7.55;;;;;;;3.79;100.00;98998.63;10386734;28;20045;-64
2022/01/10 14:51:10;;;;;;;19.23;8.30;;;;;;;3.77;100.00;99009.34;10389424;28;20047;-64
2022/01/10 14:56:14;;;;;;;22.25;9.20;;;;;;;3.71;100.00;99031.09;10384526;28;20057;-64
2022/01/10 15:01:19;;;;;;;22.13;9.50;;;;;;;3.65;100.00;99031.50;10395410;28;20481;-65
2022/01/10 15:06:24;;;;;;;18.08;8.93;;;;;;;3.63;100.00;99044.94;10393476;28;20045;-62
2022/01/10 15:11:27;;;;;;;23.05;8.88;;;;;;;3.59;100.00;99054.06;10373895;28;20060;-62
2022/01/10 15:16:31;;;;;;;22.20;9.00;;;;;;;3.60;100.00;99065.59;10374892;28;20121;-62
2022/01/10 15:21:42;;;;;;;20.52;8.95;;;;;;;3.54;100.00;99072.19;10483305;23;20066;-59
2022/01/10 15:26:45;;;;;;;21.50;9.43;;;;;;;3.52;100.00;99090.09;10491807;28;20092;-64
2022/01/10 15:31:49;;;;;;;19.35;8.95;;;;;;;3.49;100.00;99088.47;10568407;27;20471;-58
2022/01/10 15:36:53;;;;;;;16.27;7.45;;;;;;;3.50;100.00;99097.31;10579827;27;20470;-55
2022/01/10 15:41:59;;;;;;;18.30;8.27;;;;;;;3.47;100.00;99101.03;10576109;27;20055;-58
2022/01/10 15:47:03;;;;;;;19.48;7.63;;;;;;;3.46;100.00;99103.81;10578045;27;20108;-57
2022/01/10 15:52:07;;;;;;;21.67;8.23;;;;;;;3.47;100.00;99105.53;10573426;27;20067;-57
2022/01/10 15:57:10;;;;;;;19.65;8.23;;;;;;;3.44;100.00;99116.38;10567870;27;20036;-56
2022/01/10 16:02:14;;;;;;;22.73;8.98;;;;;;;3.45;100.00;99121.59;10548407;27;20503;-62
2022/01/10 16:07:19;;;;;;;20.58;8.55;;;;;;;3.45;100.00;99137.56;10543311;27;20134;-59
2022/01/10 16:12:22;;;;;;;24.67;8.35;;;;;;;3.41;100.00;99130.72;10571922;27;20039;-54
2022/01/10 16:17:25;;;;;;;22.13;8.80;;;;;;;3.37;100.00;99140.72;10576467;27;20054;-59
2022/01/10 16:22:30;;;;;;;24.75;8.77;;;;;;;3.37;100.00;99159.38;10571854;27;20050;-59
2022/01/10 16:27:34;;;;;;;18.95;8.77;;;;;;;3.32;100.00;99171.25;10578952;27;20044;-60
2022/01/10 16:32:39;;;;;;;22.15;8.65;;;;;;;3.28;100.00;99178.59;10566886;28;20071;-54
2022/01/10 16:37:44;;;;;;;21.17;8.52;;;;;;;3.28;100.00;99186.59;10577841;28;20123;-62
2022/01/10 16:42:48;;;;;;;27.92;9.50;;;;;;;3.27;100.00;99194.69;10569047;28;20130;-53
2022/01/10 16:47:53;;;;;;;24.17;9.57;;;;;;;3.29;100.00;99201.63;10568295;28;20082;-56
2022/01/10 16:52:57;;;;;;;26.38;10.45;;;;;;;3.31;100.00;99217.50;10549922;28;20071;-56
2022/01/10 16:58:01;;;;;;;22.90;11.18;;;;;;;3.30;100.00;99223.75;10571757;28;20477;-64
2022/01/10 17:03:04;;;;;;;24.95;10.43;;;;;;;3.32;100.00;99233.41;10569030;28;20498;-60
2022/01/10 17:08:10;;;;;;;22.42;10.93;;;;;;;3.30;100.00;99245.94;10564563;28;20043;-58
2022/01/10 17:13:13;;;;;;;23.90;10.95;;;;;;;3.28;100.00;99255.84;10587216;27;20051;-58
2022/01/10 17:18:17;;;;;;;22.27;10.88;;;;;;;3.29;100.00;99262.03;10586256;27;20118;-61
2022/01/10 17:23:21;;;;;;;25.33;11.77;;;;;;;3.30;100.00;99272.59;10593453;27;20090;-59
2022/01/10 17:28:24;;;;;;;24.85;11.25;;;;;;;3.30;100.00;99283.22;10586377;27;20117;-63
2022/01/10 17:33:27;;;;;;;30.60;12.70;;;;;;;3.30;100.00;99285.91;10586605;27;20063;-61
2022/01/10 17:38:32;;;;;;;22.95;11.25;;;;;;;3.32;100.00;99296.44;10585759;27;20115;-58
2022/01/10 17:43:36;;;;;;;24.75;12.18;;;;;;;3.33;100.00;99314.16;10579594;27;20119;-57
2022/01/10 17:48:39;;;;;;;28.23;13.27;;;;;;;3.33;100.00;99312.34;10581270;27;20052;-57
2022/01/10 17:53:43;;;;;;;26.23;13.73;;;;;;;3.34;100.00;99322.06;10568851;27;20055;-65
2022/01/10 17:58:47;;;;;;;31.23;14.60;;;;;;;3.34;100.00;99332.72;10582924;27;20044;-62
2022/01/10 18:03:52;;;;;;;35.25;16.05;;;;;;;3.34;100.00;99338.03;10589543;27;20047;-54
2022/01/10 18:08:57;;;;;;;41.75;19.95;;;;;;;3.31;100.00;99338.22;10547473;27;20063;-58
2022/01/10 18:14:00;;;;;;;37.28;17.98;;;;;;;3.31;100.00;99351.53;10571573;27;20441;-58
2022/01/10 18:19:03;;;;;;;43.25;21.45;;;;;;;3.31;100.00;99351.53;10575850;27;20139;-63
2022/01/10 18:24:08;;;;;;;43.70;20.50;;;;;;;3.30;100.00;99362.25;10592691;27;20100;-59
2022/01/10 18:29:11;;;;;;;42.33;21.48;;;;;;;3.27;100.00;99365.97;10569334;27;20079;-59
2022/01/10 18:34:14;;;;;;;48.60;21.70;;;;;;;3.26;100.00;99377.56;10582853;27;20043;-58
2022/01/10 18:39:18;;;;;;;51.58;22.45;;;;;;;3.26;100.00;99377.56;10575085;27;20110;-61
2022/01/10 18:44:22;;;;;;;53.40;24.15;;;;;;;3.25;100.00;99389.19;10581320;27;20142;-61
2022/01/10 18:49:25;;;;;;;45.42;22.55;;;;;;;3.24;100.00;99388.34;10582899;27;20578;-55
2022/01/10 18:54:30;;;;;;;44.13;22.33;;;;;;;3.21;100.00;99395.66;10572216;27;20100;-59
2022/01/10 18:59:58;;;;;;;44.38;23.02;;;;;;;3.22;100.00;99397.38;10583869;27;20043;-58
2022/01/10 19:05:07;;;;;;;44.55;22.02;;;;;;;3.22;100.00;99402.69;10559753;27;20403;-60
2022/01/10 19:10:12;;;;;;;52.47;24.08;;;;;;;3.20;100.00;99410.75;10580135;27;20146;-60
2022/01/10 19:15:15;;;;;;;53.53;24.98;;;;;;;3.17;100.00;99420.72;10583002;27;20093;-63
2022/01/10 19:20:21;;;;;;;62.45;27.35;;;;;;;3.18;100.00;99419.78;10583406;27;20574;-63
2022/01/10 19:25:25;;;;;;;56.55;27.50;;;;;;;3.16;100.00;99435.88;10565203;27;20135;-58
2022/01/10 19:30:29;;;;;;;63.50;29.20;;;;;;;3.17;100.00;99442.03;10550543;27;20047;-60
2022/01/10 19:35:33;;;;;;;60.53;28.10;;;;;;;3.18;100.00;99451.75;10562668;27;20126;-58
2022/01/10 19:40:38;;;;;;;75.65;32.25;;;;;;;3.14;100.00;99456.41;10539366;27;20032;-61
2022/01/10 19:45:41;;;;;;;80.63;33.83;;;;;;;3.14;100.00;99453.72;10561040;27;20495;-60
2022/01/10 19:50:44;;;;;;;89.22;33.47;;;;;;;3.15;100.00;99468.78;10543362;27;20066;-60
2022/01/10 19:55:53;;;;;;;94.25;35.63;;;;;;;3.14;100.00;99471.50;10561153;27;20609;-59
2022/01/10 20:00:59;;;;;;;92.60;34.38;;;;;;;3.14;100.00;99479.50;10556398;27;20116;-59
2022/01/10 20:06:03;;;;;;;82.95;32.88;;;;;;;3.14;100.00;99479.50;10541263;27;20488;-58
2022/01/10 20:11:09;;;;;;;75.78;30.85;;;;;;;3.17;100.00;99484.66;10534466;28;20547;-60
2022/01/10 20:16:15;;;;;;;74.32;30.38;;;;;;;3.17;100.00;99485.53;10534519;28;20130;-58
2022/01/10 20:21:19;;;;;;;65.45;29.05;;;;;;;3.15;100.00;99492.72;10551995;28;20043;-58
2022/01/10 20:26:24;;;;;;;70.32;29.73;;;;;;;3.18;100.00;99491.69;10562621;28;20122;-58
2022/01/10 20:31:28;;;;;;;63.47;27.35;;;;;;;3.16;100.00;99497.13;10557991;28;20118;-58
2022/01/10 20:36:32;;;;;;;67.30;28.25;;;;;;;3.17;100.00;99505.94;10562651;28;20036;-58
2022/01/10 20:41:37;;;;;;;64.60;28.95;;;;;;;3.14;100.00;99506.13;10557856;28;20445;-56
2022/01/10 20:46:40;;;;;;;75.47;31.08;;;;;;;3.07;100.00;99519.78;10568211;28;20043;-55
2022/01/10 20:51:43;;;;;;;87.13;33.25;;;;;;;3.06;100.00;99518.06;10571127;28;20491;-55
2022/01/10 20:56:48;;;;;;;99.15;35.47;;;;;;;3.08;100.00;99534.81;10571322;28;20067;-56
2022/01/10 21:01:51;;;;;;;87.45;34.58;;;;;;;3.05;100.00;99540.31;10570502;28;20123;-56
2022/01/10 21:06:55;;;;;;;85.38;38.13;;;;;;;3.04;100.00;99540.41;10568563;28;20529;-57
2022/01/10 21:11:59;;;;;;;62.00;28.52;;;;;;;3.06;100.00;99547.34;10566764;28;20071;-59
2022/01/10 21:17:03;;;;;;;61.92;28.33;;;;;;;3.04;100.00;99549.25;10570289;28;20063;-57
2022/01/10 21:22:06;;;;;;;69.70;31.13;;;;;;;3.03;100.00;99557.31;10397905;22;20411;-84
2022/01/10 21:27:12;;;;;;;65.40;28.67;;;;;;;3.05;100.00;99558.94;10342703;28;20050;-82
2022/01/10 21:32:15;;;;;;;53.83;24.90;;;;;;;3.04;100.00;99562.56;10358810;28;20113;-86
2022/01/10 21:37:19;;;;;;;56.05;25.17;;;;;;;3.05;100.00;99558.09;10361366;28;20462;-81
2022/01/10 21:42:24;;;;;;;60.95;26.52;;;;;;;3.06;100.00;99558.00;10350373;28;20529;-85
2022/01/10 21:47:27;;;;;;;59.60;27.23;;;;;;;3.05;100.00;99563.44;10348405;28;20113;-86
2022/01/10 21:52:31;;;;;;;67.45;28.40;;;;;;;3.04;100.00;99570.53;10334941;28;20078;-81
2022/01/10 21:57:35;;;;;;;66.65;28.25;;;;;;;3.03;100.00;99571.47;10351825;28;20140;-80
2022/01/10 22:02:39;;;;;;;67.47;27.00;;;;;;;3.02;100.00;99583.06;10337699;28;20086;-85
2022/01/10 22:07:43;;;;;;;60.13;25.58;;;;;;;2.98;100.00;99586.88;10353734;28;20513;-84
2022/01/10 22:12:48;;;;;;;54.22;25.60;;;;;;;2.98;100.00;99586.00;10339049;28;20054;-86
2022/01/10 22:17:52;;;;;;;57.97;26.30;;;;;;;2.99;100.00;99593.91;10340325;28;20054;-84
2022/01/10 22:22:55;;;;;;;52.42;25.08;;;;;;;2.99;100.00;99601.91;10323453;28;20089;-81
2022/01/10 22:27:59;;;;;;;54.72;24.85;;;;;;;3.00;100.00;99605.41;10318868;28;20479;-85
2022/01/10 22:33:02;;;;;;;59.33;25.38;;;;;;;3.03;100.00;99606.09;10318561;28;20046;-85
2022/01/10 22:38:05;;;;;;;59.95;27.20;;;;;;;3.02;100.00;99614.19;10303970;28;20055;-82
2022/01/10 22:43:12;;;;;;;62.97;27.40;;;;;;;3.02;100.00;99617.69;10306074;28;20050;-85
2022/01/10 22:48:15;;;;;;;67.60;29.10;;;;;;;3.02;100.00;99624.81;10319618;28;20074;-82
2022/01/10 22:53:18;;;;;;;73.90;29.70;;;;;;;2.98;100.00;99620.59;10309945;28;20050;-83
2022/01/10 22:58:23;;;;;;;84.57;32.13;;;;;;;2.97;100.00;99627.75;10301515;28;20497;-82
2022/01/10 23:03:28;;;;;;;83.47;30.15;;;;;;;2.96;100.00;99626.03;10294969;28;20054;-82
2022/01/10 23:08:32;;;;;;;86.70;32.33;;;;;;;2.95;100.00;99640.28;10313672;28;20113;-84
2022/01/10 23:13:36;;;;;;;77.70;31.77;;;;;;;2.93;100.00;99639.50;10307306;28;20146;-86
2022/01/10 23:18:40;;;;;;;82.20;32.83;;;;;;;2.92;100.00;99643.97;10314488;28;20134;-86
2022/01/10 23:23:43;;;;;;;91.30;33.38;;;;;;;2.89;100.00;99644.13;10317271;28;20145;-84